sensor_id;sensor_type;location;lat;lon;timestamp;temperature;humidity
26326;DHT22;14032;52.510;7.342;2023-07-20T00:00:45;16.70;99.90
26326;DHT22;14032;52.510;7.342;2023-07-20T00:03:12;16.60;99.90
26326;DHT22;14032;52.510;7.342;2023-07-20T00:05:43;16.70;99.90
26326;DHT22;14032;52.510;7.342;2023-07-20T00:08:09;16.70;99.90
26326;DHT22;14032;52.510;7.342;2023-07-20T00:10:34;16.80;99.90
26326;DHT22;14032;52.510;7.342;2023-07-20T00:13:00;16.70;99.90
26326;DHT22;14032;52.510;7.342;2023-07-20T00:15:25;16.60;99.90
26326;DHT22;14032;52.510;7.342;2023-07-20T00:17:51;16.70;99.90
26326;DHT22;14032;52.510;7.342;2023-07-20T00:20:17;16.70;99.90
26326;DHT22;14032;52.510;7.342;2023-07-20T00:22:43;16.60;99.90
26326;DHT22;14032;52.510;7.342;2023-07-20T00:25:09;16.70;99.90
26326;DHT22;14032;52.510;7.342;2023-07-20T00:27:37;16.70;99.90
26326;DHT22;14032;52.510;7.342;2023-07-20T00:30:03;16.70;99.90
26326;DHT22;14032;52.510;7.342;2023-07-20T00:32:29;16.60;99.90
26326;DHT22;14032;52.510;7.342;2023-07-20T00:34:55;16.60;99.90
26326;DHT22;14032;52.510;7.342;2023-07-20T00:37:20;16.60;99.90
26326;DHT22;14032;52.510;7.342;2023-07-20T00:39:46;16.50;99.90
26326;DHT22;14032;52.510;7.342;2023-07-20T00:42:11;16.60;99.90
26326;DHT22;14032;52.510;7.342;2023-07-20T00:44:37;16.40;99.90
26326;DHT22;14032;52.510;7.342;2023-07-20T00:47:03;16.40;99.90
26326;DHT22;14032;52.510;7.342;2023-07-20T00:49:29;16.30;99.90
26326;DHT22;14032;52.510;7.342;2023-07-20T00:51:55;16.20;99.90
26326;DHT22;14032;52.510;7.342;2023-07-20T00:54:20;16.10;99.90
26326;DHT22;14032;52.510;7.342;2023-07-20T00:56:46;16.00;99.90
26326;DHT22;14032;52.510;7.342;2023-07-20T00:59:12;15.90;99.90
26326;DHT22;14032;52.510;7.342;2023-07-20T01:01:38;15.90;99.90
26326;DHT22;14032;52.510;7.342;2023-07-20T01:04:04;15.80;99.90
26326;DHT22;14032;52.510;7.342;2023-07-20T01:07:17;15.70;99.90
26326;DHT22;14032;52.510;7.342;2023-07-20T01:09:42;15.70;99.90
26326;DHT22;14032;52.510;7.342;2023-07-20T01:12:41;15.60;99.90
26326;DHT22;14032;52.510;7.342;2023-07-20T01:15:08;15.60;99.90
26326;DHT22;14032;52.510;7.342;2023-07-20T01:17:36;15.50;99.90
26326;DHT22;14032;52.510;7.342;2023-07-20T01:20:02;15.50;99.90
26326;DHT22;14032;52.510;7.342;2023-07-20T01:22:38;15.50;99.90
26326;DHT22;14032;52.510;7.342;2023-07-20T01:25:12;15.40;99.90
26326;DHT22;14032;52.510;7.342;2023-07-20T01:33:30;15.30;99.90
26326;DHT22;14032;52.510;7.342;2023-07-20T01:35:58;15.20;99.90
26326;DHT22;14032;52.510;7.342;2023-07-20T01:38:25;15.20;99.90
26326;DHT22;14032;52.510;7.342;2023-07-20T01:40:51;15.20;99.90
26326;DHT22;14032;52.510;7.342;2023-07-20T01:43:17;15.10;99.90
26326;DHT22;14032;52.510;7.342;2023-07-20T01:45:43;15.10;99.90
26326;DHT22;14032;52.510;7.342;2023-07-20T01:48:09;15.10;99.90
26326;DHT22;14032;52.510;7.342;2023-07-20T01:50:35;15.10;99.90
26326;DHT22;14032;52.510;7.342;2023-07-20T01:53:01;15.10;99.90
26326;DHT22;14032;52.510;7.342;2023-07-20T01:55:26;15.00;99.90
26326;DHT22;14032;52.510;7.342;2023-07-20T01:57:52;15.00;99.90
26326;DHT22;14032;52.510;7.342;2023-07-20T02:00:18;15.00;99.90
26326;DHT22;14032;52.510;7.342;2023-07-20T02:02:49;15.00;99.90
26326;DHT22;14032;52.510;7.342;2023-07-20T02:05:15;15.00;99.90
26326;DHT22;14032;52.510;7.342;2023-07-20T02:07:41;15.00;99.90
26326;DHT22;14032;52.510;7.342;2023-07-20T02:10:07;15.00;99.90
26326;DHT22;14032;52.510;7.342;2023-07-20T02:12:32;15.00;99.90
26326;DHT22;14032;52.510;7.342;2023-07-20T02:14:58;15.00;99.90
26326;DHT22;14032;52.510;7.342;2023-07-20T02:17:23;15.00;99.90
26326;DHT22;14032;52.510;7.342;2023-07-20T02:19:53;15.00;99.90
26326;DHT22;14032;52.510;7.342;2023-07-20T02:22:20;15.00;99.90
26326;DHT22;14032;52.510;7.342;2023-07-20T02:24:46;15.00;99.90
26326;DHT22;14032;52.510;7.342;2023-07-20T02:27:12;15.00;99.90
26326;DHT22;14032;52.510;7.342;2023-07-20T02:29:37;14.90;99.90
26326;DHT22;14032;52.510;7.342;2023-07-20T02:32:03;14.90;99.90
26326;DHT22;14032;52.510;7.342;2023-07-20T02:34:29;14.90;99.90
26326;DHT22;14032;52.510;7.342;2023-07-20T02:36:55;14.90;99.90
26326;DHT22;14032;52.510;7.342;2023-07-20T02:39:29;14.90;99.90
26326;DHT22;14032;52.510;7.342;2023-07-20T02:41:55;14.90;99.90
26326;DHT22;14032;52.510;7.342;2023-07-20T02:44:20;14.90;99.90
26326;DHT22;14032;52.510;7.342;2023-07-20T02:46:46;14.80;99.90
26326;DHT22;14032;52.510;7.342;2023-07-20T02:49:12;14.80;99.90
26326;DHT22;14032;52.510;7.342;2023-07-20T02:51:37;14.80;99.90
26326;DHT22;14032;52.510;7.342;2023-07-20T02:54:03;14.90;99.90
26326;DHT22;14032;52.510;7.342;2023-07-20T02:56:29;14.80;99.90
26326;DHT22;14032;52.510;7.342;2023-07-20T02:58:55;14.80;99.90
26326;DHT22;14032;52.510;7.342;2023-07-20T03:01:20;14.80;99.90
26326;DHT22;14032;52.510;7.342;2023-07-20T03:03:46;14.80;99.90
26326;DHT22;14032;52.510;7.342;2023-07-20T03:06:15;14.80;99.90
26326;DHT22;14032;52.510;7.342;2023-07-20T03:08:42;14.80;99.90
26326;DHT22;14032;52.510;7.342;2023-07-20T03:11:13;14.80;99.90
26326;DHT22;14032;52.510;7.342;2023-07-20T03:13:39;14.80;99.90
26326;DHT22;14032;52.510;7.342;2023-07-20T03:16:04;14.80;99.90
26326;DHT22;14032;52.510;7.342;2023-07-20T03:18:30;14.80;99.90
26326;DHT22;14032;52.510;7.342;2023-07-20T03:20:55;14.80;99.90
26326;DHT22;14032;52.510;7.342;2023-07-20T03:23:21;14.80;99.90
26326;DHT22;14032;52.510;7.342;2023-07-20T03:25:46;14.80;99.90
26326;DHT22;14032;52.510;7.342;2023-07-20T03:28:12;14.80;99.90
26326;DHT22;14032;52.510;7.342;2023-07-20T03:30:37;14.80;99.90
26326;DHT22;14032;52.510;7.342;2023-07-20T03:33:03;14.70;99.90
26326;DHT22;14032;52.510;7.342;2023-07-20T03:35:29;14.70;99.90
26326;DHT22;14032;52.510;7.342;2023-07-20T03:37:55;14.70;99.90
26326;DHT22;14032;52.510;7.342;2023-07-20T03:40:20;14.70;99.90
26326;DHT22;14032;52.510;7.342;2023-07-20T03:42:46;14.70;99.90
26326;DHT22;14032;52.510;7.342;2023-07-20T03:45:11;14.60;99.90
26326;DHT22;14032;52.510;7.342;2023-07-20T03:47:37;14.60;99.90
26326;DHT22;14032;52.510;7.342;2023-07-20T03:50:03;14.60;99.90
26326;DHT22;14032;52.510;7.342;2023-07-20T03:52:30;14.60;99.90
26326;DHT22;14032;52.510;7.342;2023-07-20T03:54:56;14.60;99.90
26326;DHT22;14032;52.510;7.342;2023-07-20T03:57:21;14.50;99.90
26326;DHT22;14032;52.510;7.342;2023-07-20T03:59:48;14.50;99.90
26326;DHT22;14032;52.510;7.342;2023-07-20T04:02:13;14.40;99.90
26326;DHT22;14032;52.510;7.342;2023-07-20T04:04:40;14.50;99.90
26326;DHT22;14032;52.510;7.342;2023-07-20T04:07:05;14.40;99.90
26326;DHT22;14032;52.510;7.342;2023-07-20T04:09:31;14.30;99.90
26326;DHT22;14032;52.510;7.342;2023-07-20T04:11:57;14.40;99.90
26326;DHT22;14032;52.510;7.342;2023-07-20T04:14:23;14.40;99.90
26326;DHT22;14032;52.510;7.342;2023-07-20T04:16:49;14.40;99.90
26326;DHT22;14032;52.510;7.342;2023-07-20T04:19:14;14.30;99.90
26326;DHT22;14032;52.510;7.342;2023-07-20T04:21:40;14.30;99.90
26326;DHT22;14032;52.510;7.342;2023-07-20T04:24:06;14.30;99.90
26326;DHT22;14032;52.510;7.342;2023-07-20T04:26:32;14.30;99.90
26326;DHT22;14032;52.510;7.342;2023-07-20T04:28:58;14.30;99.90
26326;DHT22;14032;52.510;7.342;2023-07-20T04:31:24;14.30;99.90
26326;DHT22;14032;52.510;7.342;2023-07-20T04:33:50;14.30;99.90
26326;DHT22;14032;52.510;7.342;2023-07-20T04:36:16;14.30;99.90
26326;DHT22;14032;52.510;7.342;2023-07-20T04:38:47;14.30;99.90
26326;DHT22;14032;52.510;7.342;2023-07-20T04:41:13;14.30;99.90
26326;DHT22;14032;52.510;7.342;2023-07-20T04:43:42;14.30;99.90
26326;DHT22;14032;52.510;7.342;2023-07-20T04:46:09;14.30;99.90
26326;DHT22;14032;52.510;7.342;2023-07-20T04:48:34;14.30;99.90
26326;DHT22;14032;52.510;7.342;2023-07-20T04:51:00;14.30;99.90
26326;DHT22;14032;52.510;7.342;2023-07-20T04:53:26;14.30;99.90
26326;DHT22;14032;52.510;7.342;2023-07-20T04:55:51;14.30;99.90
26326;DHT22;14032;52.510;7.342;2023-07-20T04:58:18;14.30;99.90
26326;DHT22;14032;52.510;7.342;2023-07-20T05:00:44;14.40;99.90
26326;DHT22;14032;52.510;7.342;2023-07-20T05:03:09;14.40;99.90
26326;DHT22;14032;52.510;7.342;2023-07-20T05:05:35;14.50;99.90
26326;DHT22;14032;52.510;7.342;2023-07-20T05:08:00;14.60;99.90
26326;DHT22;14032;52.510;7.342;2023-07-20T05:10:26;14.60;99.90
26326;DHT22;14032;52.510;7.342;2023-07-20T05:12:52;14.70;99.90
26326;DHT22;14032;52.510;7.342;2023-07-20T05:15:17;14.80;99.90
26326;DHT22;14032;52.510;7.342;2023-07-20T05:17:43;14.90;99.90
26326;DHT22;14032;52.510;7.342;2023-07-20T05:20:09;15.00;99.90
26326;DHT22;14032;52.510;7.342;2023-07-20T05:22:40;15.00;99.90
26326;DHT22;14032;52.510;7.342;2023-07-20T05:25:10;15.00;99.90
26326;DHT22;14032;52.510;7.342;2023-07-20T05:27:40;15.10;99.90
26326;DHT22;14032;52.510;7.342;2023-07-20T05:30:07;15.20;99.90
26326;DHT22;14032;52.510;7.342;2023-07-20T05:32:33;15.20;99.90
26326;DHT22;14032;52.510;7.342;2023-07-20T05:34:59;15.30;99.90
26326;DHT22;14032;52.510;7.342;2023-07-20T05:37:25;15.30;99.90
26326;DHT22;14032;52.510;7.342;2023-07-20T05:39:51;15.30;99.90
26326;DHT22;14032;52.510;7.342;2023-07-20T05:42:17;15.40;99.90
26326;DHT22;14032;52.510;7.342;2023-07-20T05:44:43;15.40;99.90
26326;DHT22;14032;52.510;7.342;2023-07-20T05:47:08;15.40;99.90
26326;DHT22;14032;52.510;7.342;2023-07-20T05:49:37;15.50;99.90
26326;DHT22;14032;52.510;7.342;2023-07-20T05:52:02;15.50;99.90
26326;DHT22;14032;52.510;7.342;2023-07-20T05:54:28;15.50;99.90
26326;DHT22;14032;52.510;7.342;2023-07-20T05:56:54;15.50;99.90
26326;DHT22;14032;52.510;7.342;2023-07-20T05:59:20;15.50;99.90
26326;DHT22;14032;52.510;7.342;2023-07-20T06:01:45;15.50;99.90
26326;DHT22;14032;52.510;7.342;2023-07-20T06:04:14;15.50;99.90
26326;DHT22;14032;52.510;7.342;2023-07-20T06:06:39;15.60;99.90
26326;DHT22;14032;52.510;7.342;2023-07-20T06:09:05;15.60;99.90
26326;DHT22;14032;52.510;7.342;2023-07-20T06:11:33;15.60;99.90
26326;DHT22;14032;52.510;7.342;2023-07-20T06:13:59;15.70;99.90
26326;DHT22;14032;52.510;7.342;2023-07-20T06:16:24;15.70;99.90
26326;DHT22;14032;52.510;7.342;2023-07-20T06:18:50;15.80;99.90
26326;DHT22;14032;52.510;7.342;2023-07-20T06:21:16;15.90;99.90
26326;DHT22;14032;52.510;7.342;2023-07-20T06:23:41;16.00;99.90
26326;DHT22;14032;52.510;7.342;2023-07-20T06:26:07;16.00;99.90
26326;DHT22;14032;52.510;7.342;2023-07-20T06:28:33;16.10;99.90
26326;DHT22;14032;52.510;7.342;2023-07-20T06:31:00;16.20;99.90
26326;DHT22;14032;52.510;7.342;2023-07-20T06:33:26;16.20;99.90
26326;DHT22;14032;52.510;7.342;2023-07-20T06:35:51;16.30;99.90
26326;DHT22;14032;52.510;7.342;2023-07-20T06:38:18;16.40;99.90
26326;DHT22;14032;52.510;7.342;2023-07-20T06:40:46;16.50;99.90
26326;DHT22;14032;52.510;7.342;2023-07-20T06:43:12;16.50;99.90
26326;DHT22;14032;52.510;7.342;2023-07-20T06:45:37;16.60;99.90
26326;DHT22;14032;52.510;7.342;2023-07-20T06:48:03;16.60;99.90
26326;DHT22;14032;52.510;7.342;2023-07-20T06:50:29;16.70;99.90
26326;DHT22;14032;52.510;7.342;2023-07-20T06:52:55;16.70;99.90
26326;DHT22;14032;52.510;7.342;2023-07-20T06:55:20;16.80;99.90
26326;DHT22;14032;52.510;7.342;2023-07-20T06:57:46;16.70;99.90
26326;DHT22;14032;52.510;7.342;2023-07-20T07:00:12;16.70;99.90
26326;DHT22;14032;52.510;7.342;2023-07-20T07:02:38;16.90;99.90
26326;DHT22;14032;52.510;7.342;2023-07-20T07:05:04;16.90;99.90
26326;DHT22;14032;52.510;7.342;2023-07-20T07:07:30;17.00;99.90
26326;DHT22;14032;52.510;7.342;2023-07-20T07:09:56;17.10;99.90
26326;DHT22;14032;52.510;7.342;2023-07-20T07:12:22;17.00;99.90
26326;DHT22;14032;52.510;7.342;2023-07-20T07:14:47;17.20;99.90
26326;DHT22;14032;52.510;7.342;2023-07-20T07:17:13;17.20;99.90
26326;DHT22;14032;52.510;7.342;2023-07-20T07:19:38;17.40;99.90
26326;DHT22;14032;52.510;7.342;2023-07-20T07:22:04;17.60;99.90
26326;DHT22;14032;52.510;7.342;2023-07-20T07:24:30;17.70;99.90
26326;DHT22;14032;52.510;7.342;2023-07-20T07:27:02;17.70;99.90
26326;DHT22;14032;52.510;7.342;2023-07-20T07:29:29;17.70;99.90
26326;DHT22;14032;52.510;7.342;2023-07-20T07:31:54;17.70;99.90
26326;DHT22;14032;52.510;7.342;2023-07-20T07:34:20;17.80;99.90
26326;DHT22;14032;52.510;7.342;2023-07-20T07:36:45;17.90;99.90
26326;DHT22;14032;52.510;7.342;2023-07-20T07:39:12;18.00;99.90
26326;DHT22;14032;52.510;7.342;2023-07-20T07:41:38;18.20;99.90
26326;DHT22;14032;52.510;7.342;2023-07-20T07:44:04;18.20;99.90
26326;DHT22;14032;52.510;7.342;2023-07-20T07:46:29;18.20;99.90
26326;DHT22;14032;52.510;7.342;2023-07-20T07:48:55;18.30;99.90
26326;DHT22;14032;52.510;7.342;2023-07-20T07:51:20;18.30;99.90
26326;DHT22;14032;52.510;7.342;2023-07-20T07:53:46;18.30;99.90
26326;DHT22;14032;52.510;7.342;2023-07-20T07:56:12;18.30;99.90
26326;DHT22;14032;52.510;7.342;2023-07-20T07:58:38;18.20;99.90
26326;DHT22;14032;52.510;7.342;2023-07-20T08:01:04;18.40;99.90
26326;DHT22;14032;52.510;7.342;2023-07-20T08:03:29;18.50;99.90
26326;DHT22;14032;52.510;7.342;2023-07-20T08:05:55;18.60;99.90
26326;DHT22;14032;52.510;7.342;2023-07-20T08:08:21;18.70;99.90
26326;DHT22;14032;52.510;7.342;2023-07-20T08:10:47;18.50;99.90
26326;DHT22;14032;52.510;7.342;2023-07-20T08:13:13;18.30;99.90
26326;DHT22;14032;52.510;7.342;2023-07-20T08:15:39;18.30;99.90
26326;DHT22;14032;52.510;7.342;2023-07-20T08:18:05;18.50;99.90
26326;DHT22;14032;52.510;7.342;2023-07-20T08:20:31;18.60;99.90
26326;DHT22;14032;52.510;7.342;2023-07-20T08:22:57;18.70;99.90
26326;DHT22;14032;52.510;7.342;2023-07-20T08:25:25;18.90;99.90
26326;DHT22;14032;52.510;7.342;2023-07-20T08:27:51;19.00;99.90
26326;DHT22;14032;52.510;7.342;2023-07-20T08:30:16;19.00;99.90
26326;DHT22;14032;52.510;7.342;2023-07-20T08:32:42;18.90;99.90
26326;DHT22;14032;52.510;7.342;2023-07-20T08:35:08;18.80;99.90
26326;DHT22;14032;52.510;7.342;2023-07-20T08:37:34;18.70;99.90
26326;DHT22;14032;52.510;7.342;2023-07-20T08:40:00;18.70;99.90
26326;DHT22;14032;52.510;7.342;2023-07-20T08:42:27;18.80;99.90
26326;DHT22;14032;52.510;7.342;2023-07-20T08:44:53;18.80;99.90
26326;DHT22;14032;52.510;7.342;2023-07-20T08:47:21;18.60;99.90
26326;DHT22;14032;52.510;7.342;2023-07-20T08:49:48;18.30;99.90
26326;DHT22;14032;52.510;7.342;2023-07-20T08:52:14;18.40;99.90
26326;DHT22;14032;52.510;7.342;2023-07-20T08:54:40;18.50;99.90
26326;DHT22;14032;52.510;7.342;2023-07-20T08:57:06;18.70;99.90
26326;DHT22;14032;52.510;7.342;2023-07-20T08:59:34;18.90;99.90
26326;DHT22;14032;52.510;7.342;2023-07-20T09:02:02;19.10;99.90
26326;DHT22;14032;52.510;7.342;2023-07-20T09:04:29;19.10;99.90
26326;DHT22;14032;52.510;7.342;2023-07-20T09:06:55;18.80;99.90
26326;DHT22;14032;52.510;7.342;2023-07-20T09:09:22;18.60;99.90
26326;DHT22;14032;52.510;7.342;2023-07-20T09:11:51;18.50;99.90
26326;DHT22;14032;52.510;7.342;2023-07-20T09:14:17;18.50;99.90
26326;DHT22;14032;52.510;7.342;2023-07-20T09:16:49;18.40;99.90
26326;DHT22;14032;52.510;7.342;2023-07-20T09:19:16;18.40;99.90
26326;DHT22;14032;52.510;7.342;2023-07-20T09:21:51;18.40;99.90
26326;DHT22;14032;52.510;7.342;2023-07-20T09:24:18;18.50;99.90
26326;DHT22;14032;52.510;7.342;2023-07-20T09:26:46;18.80;99.90
26326;DHT22;14032;52.510;7.342;2023-07-20T09:29:19;19.00;99.90
26326;DHT22;14032;52.510;7.342;2023-07-20T09:32:02;19.00;99.90
26326;DHT22;14032;52.510;7.342;2023-07-20T09:34:29;18.90;99.90
26326;DHT22;14032;52.510;7.342;2023-07-20T09:36:57;18.80;99.90
26326;DHT22;14032;52.510;7.342;2023-07-20T09:39:23;18.70;99.90
26326;DHT22;14032;52.510;7.342;2023-07-20T09:41:49;18.50;99.90
26326;DHT22;14032;52.510;7.342;2023-07-20T09:44:15;18.40;99.90
26326;DHT22;14032;52.510;7.342;2023-07-20T09:46:45;18.30;99.90
26326;DHT22;14032;52.510;7.342;2023-07-20T09:49:11;18.20;99.90
26326;DHT22;14032;52.510;7.342;2023-07-20T09:51:37;18.20;99.90
26326;DHT22;14032;52.510;7.342;2023-07-20T09:54:03;18.30;99.90
26326;DHT22;14032;52.510;7.342;2023-07-20T09:56:30;18.30;99.90
26326;DHT22;14032;52.510;7.342;2023-07-20T09:58:56;18.30;99.90
26326;DHT22;14032;52.510;7.342;2023-07-20T10:01:22;18.40;99.90
26326;DHT22;14032;52.510;7.342;2023-07-20T10:03:51;18.60;99.90
26326;DHT22;14032;52.510;7.342;2023-07-20T10:06:23;18.80;99.90
26326;DHT22;14032;52.510;7.342;2023-07-20T10:08:55;19.00;99.90
26326;DHT22;14032;52.510;7.342;2023-07-20T10:11:22;19.30;99.90
26326;DHT22;14032;52.510;7.342;2023-07-20T10:13:53;19.60;99.90
26326;DHT22;14032;52.510;7.342;2023-07-20T10:16:28;19.80;99.90
26326;DHT22;14032;52.510;7.342;2023-07-20T10:19:14;19.80;99.90
26326;DHT22;14032;52.510;7.342;2023-07-20T10:21:47;19.70;99.90
26326;DHT22;14032;52.510;7.342;2023-07-20T10:24:13;19.60;99.90
26326;DHT22;14032;52.510;7.342;2023-07-20T10:26:40;19.50;99.90
26326;DHT22;14032;52.510;7.342;2023-07-20T10:29:05;19.60;99.90
26326;DHT22;14032;52.510;7.342;2023-07-20T10:31:32;19.80;99.90
26326;DHT22;14032;52.510;7.342;2023-07-20T10:33:58;19.90;99.90
26326;DHT22;14032;52.510;7.342;2023-07-20T10:36:26;20.10;99.90
26326;DHT22;14032;52.510;7.342;2023-07-20T10:38:54;20.30;99.90
26326;DHT22;14032;52.510;7.342;2023-07-20T10:41:23;20.30;99.90
26326;DHT22;14032;52.510;7.342;2023-07-20T10:43:58;20.30;99.90
26326;DHT22;14032;52.510;7.342;2023-07-20T10:49:02;20.00;99.90
26326;DHT22;14032;52.510;7.342;2023-07-20T10:51:29;19.80;99.90
26326;DHT22;14032;52.510;7.342;2023-07-20T10:53:56;19.60;99.90
26326;DHT22;14032;52.510;7.342;2023-07-20T10:56:27;19.40;99.90
26326;DHT22;14032;52.510;7.342;2023-07-20T10:58:59;19.40;99.90
26326;DHT22;14032;52.510;7.342;2023-07-20T11:01:30;19.20;99.90
26326;DHT22;14032;52.510;7.342;2023-07-20T11:03:59;19.10;99.90
26326;DHT22;14032;52.510;7.342;2023-07-20T11:09:12;19.00;99.90
26326;DHT22;14032;52.510;7.342;2023-07-20T11:14:26;18.90;99.90
26326;DHT22;14032;52.510;7.342;2023-07-20T11:16:53;18.90;99.90
26326;DHT22;14032;52.510;7.342;2023-07-20T11:19:23;18.80;99.90
26326;DHT22;14032;52.510;7.342;2023-07-20T11:21:53;18.80;99.90
26326;DHT22;14032;52.510;7.342;2023-07-20T11:24:20;18.80;99.90
26326;DHT22;14032;52.510;7.342;2023-07-20T11:26:47;18.80;99.90
26326;DHT22;14032;52.510;7.342;2023-07-20T11:29:13;18.70;99.90
26326;DHT22;14032;52.510;7.342;2023-07-20T11:31:40;18.70;99.90
26326;DHT22;14032;52.510;7.342;2023-07-20T11:34:09;18.60;99.90
26326;DHT22;14032;52.510;7.342;2023-07-20T11:36:36;18.60;99.90
26326;DHT22;14032;52.510;7.342;2023-07-20T11:39:02;18.60;99.90
26326;DHT22;14032;52.510;7.342;2023-07-20T11:41:30;18.50;99.90
26326;DHT22;14032;52.510;7.342;2023-07-20T11:43:57;18.40;99.90
26326;DHT22;14032;52.510;7.342;2023-07-20T11:46:22;18.40;99.90
26326;DHT22;14032;52.510;7.342;2023-07-20T11:48:48;18.40;99.90
26326;DHT22;14032;52.510;7.342;2023-07-20T11:51:17;18.20;99.90
26326;DHT22;14032;52.510;7.342;2023-07-20T11:53:44;18.10;99.90
26326;DHT22;14032;52.510;7.342;2023-07-20T11:56:11;18.10;99.90
26326;DHT22;14032;52.510;7.342;2023-07-20T11:58:44;18.10;99.90
26326;DHT22;14032;52.510;7.342;2023-07-20T12:01:12;18.00;99.90
26326;DHT22;14032;52.510;7.342;2023-07-20T12:03:38;18.00;99.90
26326;DHT22;14032;52.510;7.342;2023-07-20T12:06:10;18.00;99.90
26326;DHT22;14032;52.510;7.342;2023-07-20T12:08:43;17.90;99.90
26326;DHT22;14032;52.510;7.342;2023-07-20T12:11:09;17.90;99.90
26326;DHT22;14032;52.510;7.342;2023-07-20T12:13:41;17.90;99.90
26326;DHT22;14032;52.510;7.342;2023-07-20T12:16:11;17.90;99.90
26326;DHT22;14032;52.510;7.342;2023-07-20T12:18:38;17.90;99.90
26326;DHT22;14032;52.510;7.342;2023-07-20T12:21:06;17.80;99.90
26326;DHT22;14032;52.510;7.342;2023-07-20T12:23:39;17.80;99.90
26326;DHT22;14032;52.510;7.342;2023-07-20T12:26:09;17.80;99.90
26326;DHT22;14032;52.510;7.342;2023-07-20T12:28:40;17.70;99.90
26326;DHT22;14032;52.510;7.342;2023-07-20T12:31:10;17.70;99.90
26326;DHT22;14032;52.510;7.342;2023-07-20T12:33:37;17.80;99.90
26326;DHT22;14032;52.510;7.342;2023-07-20T12:36:04;17.80;99.90
26326;DHT22;14032;52.510;7.342;2023-07-20T12:38:30;17.90;99.90
26326;DHT22;14032;52.510;7.342;2023-07-20T12:41:03;17.90;99.90
26326;DHT22;14032;52.510;7.342;2023-07-20T12:43:29;18.00;99.90
26326;DHT22;14032;52.510;7.342;2023-07-20T12:45:55;18.10;99.90
26326;DHT22;14032;52.510;7.342;2023-07-20T12:48:21;18.20;99.90
26326;DHT22;14032;52.510;7.342;2023-07-20T12:50:47;18.30;99.90
26326;DHT22;14032;52.510;7.342;2023-07-20T12:53:13;18.40;99.90
26326;DHT22;14032;52.510;7.342;2023-07-20T12:55:38;18.50;99.90
26326;DHT22;14032;52.510;7.342;2023-07-20T12:58:08;18.50;99.90
26326;DHT22;14032;52.510;7.342;2023-07-20T13:00:34;18.60;99.90
26326;DHT22;14032;52.510;7.342;2023-07-20T13:03:00;18.60;99.90
26326;DHT22;14032;52.510;7.342;2023-07-20T13:05:33;18.70;99.90
26326;DHT22;14032;52.510;7.342;2023-07-20T13:07:59;18.80;99.90
26326;DHT22;14032;52.510;7.342;2023-07-20T13:10:24;18.80;99.90
26326;DHT22;14032;52.510;7.342;2023-07-20T13:12:50;18.80;99.90
26326;DHT22;14032;52.510;7.342;2023-07-20T13:15:17;18.80;99.90
26326;DHT22;14032;52.510;7.342;2023-07-20T13:17:43;18.80;99.90
26326;DHT22;14032;52.510;7.342;2023-07-20T13:20:10;18.90;99.90
26326;DHT22;14032;52.510;7.342;2023-07-20T13:22:40;18.90;99.90
26326;DHT22;14032;52.510;7.342;2023-07-20T13:25:06;18.90;99.90
26326;DHT22;14032;52.510;7.342;2023-07-20T13:27:32;18.90;99.90
26326;DHT22;14032;52.510;7.342;2023-07-20T13:29:59;19.00;99.90
26326;DHT22;14032;52.510;7.342;2023-07-20T13:32:26;19.00;99.90
26326;DHT22;14032;52.510;7.342;2023-07-20T13:34:51;19.00;99.90
26326;DHT22;14032;52.510;7.342;2023-07-20T13:37:17;19.00;99.90
26326;DHT22;14032;52.510;7.342;2023-07-20T13:39:42;19.10;99.90
26326;DHT22;14032;52.510;7.342;2023-07-20T13:42:09;19.10;99.90
26326;DHT22;14032;52.510;7.342;2023-07-20T13:44:36;19.20;99.90
26326;DHT22;14032;52.510;7.342;2023-07-20T13:47:03;19.30;99.90
26326;DHT22;14032;52.510;7.342;2023-07-20T13:49:30;19.30;99.90
26326;DHT22;14032;52.510;7.342;2023-07-20T13:51:56;19.40;99.90
26326;DHT22;14032;52.510;7.342;2023-07-20T13:54:25;19.50;99.90
26326;DHT22;14032;52.510;7.342;2023-07-20T13:56:51;19.50;99.90
26326;DHT22;14032;52.510;7.342;2023-07-20T13:59:19;19.60;99.90
26326;DHT22;14032;52.510;7.342;2023-07-20T14:01:45;19.60;99.90
26326;DHT22;14032;52.510;7.342;2023-07-20T14:04:13;19.60;99.90
26326;DHT22;14032;52.510;7.342;2023-07-20T14:06:38;19.60;99.90
26326;DHT22;14032;52.510;7.342;2023-07-20T14:09:04;19.60;99.90
26326;DHT22;14032;52.510;7.342;2023-07-20T14:11:30;19.50;99.90
26326;DHT22;14032;52.510;7.342;2023-07-20T14:13:55;19.40;99.90
26326;DHT22;14032;52.510;7.342;2023-07-20T14:16:23;19.40;99.90
26326;DHT22;14032;52.510;7.342;2023-07-20T14:18:49;19.30;99.90
26326;DHT22;14032;52.510;7.342;2023-07-20T14:21:16;19.30;99.90
26326;DHT22;14032;52.510;7.342;2023-07-20T14:23:48;19.30;99.90
26326;DHT22;14032;52.510;7.342;2023-07-20T14:26:15;19.30;99.90
26326;DHT22;14032;52.510;7.342;2023-07-20T14:28:40;19.30;99.90
26326;DHT22;14032;52.510;7.342;2023-07-20T14:31:06;19.30;99.90
26326;DHT22;14032;52.510;7.342;2023-07-20T14:33:32;19.20;99.90
26326;DHT22;14032;52.510;7.342;2023-07-20T14:35:57;19.20;99.90
26326;DHT22;14032;52.510;7.342;2023-07-20T14:38:23;19.20;99.90
26326;DHT22;14032;52.510;7.342;2023-07-20T14:40:49;19.30;99.90
26326;DHT22;14032;52.510;7.342;2023-07-20T14:43:14;19.30;99.90
26326;DHT22;14032;52.510;7.342;2023-07-20T14:45:41;19.30;99.90
26326;DHT22;14032;52.510;7.342;2023-07-20T14:48:07;19.30;99.90
26326;DHT22;14032;52.510;7.342;2023-07-20T14:50:33;19.30;99.90
26326;DHT22;14032;52.510;7.342;2023-07-20T14:52:58;19.20;99.90
26326;DHT22;14032;52.510;7.342;2023-07-20T14:55:24;19.20;99.90
26326;DHT22;14032;52.510;7.342;2023-07-20T14:57:50;19.20;99.90
26326;DHT22;14032;52.510;7.342;2023-07-20T15:00:16;19.20;99.90
26326;DHT22;14032;52.510;7.342;2023-07-20T15:02:42;19.20;99.90
26326;DHT22;14032;52.510;7.342;2023-07-20T15:05:10;19.20;99.90
26326;DHT22;14032;52.510;7.342;2023-07-20T15:07:36;19.20;99.90
26326;DHT22;14032;52.510;7.342;2023-07-20T15:10:05;19.20;99.90
26326;DHT22;14032;52.510;7.342;2023-07-20T15:12:31;19.20;99.90
26326;DHT22;14032;52.510;7.342;2023-07-20T15:15:11;19.20;99.90
26326;DHT22;14032;52.510;7.342;2023-07-20T15:17:38;19.20;99.90
26326;DHT22;14032;52.510;7.342;2023-07-20T15:20:06;19.20;99.90
26326;DHT22;14032;52.510;7.342;2023-07-20T15:22:33;19.30;99.90
26326;DHT22;14032;52.510;7.342;2023-07-20T15:24:58;19.30;99.90
26326;DHT22;14032;52.510;7.342;2023-07-20T15:27:24;19.30;99.90
26326;DHT22;14032;52.510;7.342;2023-07-20T15:29:50;19.30;99.90
26326;DHT22;14032;52.510;7.342;2023-07-20T15:32:18;19.40;99.90
26326;DHT22;14032;52.510;7.342;2023-07-20T15:34:46;19.40;99.90
26326;DHT22;14032;52.510;7.342;2023-07-20T15:37:12;19.40;99.90
26326;DHT22;14032;52.510;7.342;2023-07-20T15:39:38;19.50;99.90
26326;DHT22;14032;52.510;7.342;2023-07-20T15:42:04;19.50;99.90